createdAt,value
2018-11-26T00:00:57.910Z,7.60
2018-11-26T00:03:28.258Z,7.60
2018-11-26T00:05:57.296Z,7.60
2018-11-26T00:08:26.409Z,7.50
2018-11-26T00:11:10.715Z,7.50
2018-11-26T00:13:39.741Z,7.50
2018-11-26T00:16:08.789Z,7.40
2018-11-26T00:18:38.084Z,7.40
2018-11-26T00:21:07.161Z,7.40
2018-11-26T00:23:36.263Z,7.40
2018-11-26T00:26:05.332Z,7.40
2018-11-26T00:28:34.931Z,7.40
2018-11-26T00:31:03.982Z,7.40
2018-11-26T00:33:34.270Z,7.40
2018-11-26T00:36:03.340Z,7.40
2018-11-26T00:38:32.769Z,7.40
2018-11-26T00:41:01.850Z,7.40
2018-11-26T00:43:31.300Z,7.50
2018-11-26T00:46:00.483Z,7.50
2018-11-26T00:48:29.554Z,7.40
2018-11-26T00:50:58.574Z,7.40
2018-11-26T00:53:27.715Z,7.50
2018-11-26T00:55:56.753Z,7.50
2018-11-26T00:58:25.829Z,7.50
2018-11-26T01:00:54.918Z,7.60
2018-11-26T01:03:23.979Z,7.60
2018-11-26T01:05:53.014Z,7.60
2018-11-26T01:08:22.030Z,7.70
2018-11-26T01:10:51.103Z,7.70
2018-11-26T01:13:20.661Z,7.70
2018-11-26T01:15:49.697Z,7.70
2018-11-26T01:18:19.811Z,7.70
2018-11-26T01:20:49.701Z,7.70
2018-11-26T01:23:18.717Z,7.70
2018-11-26T01:25:48.754Z,7.70
2018-11-26T01:28:17.762Z,7.70
2018-11-26T01:30:46.851Z,7.70
2018-11-26T01:33:16.790Z,7.70
2018-11-26T01:35:45.865Z,7.70
2018-11-26T01:38:14.873Z,7.70
2018-11-26T01:40:49.450Z,7.70
2018-11-26T01:43:18.698Z,7.70
2018-11-26T01:45:48.117Z,7.80
2018-11-26T01:48:17.188Z,7.80
2018-11-26T01:50:46.240Z,7.80
2018-11-26T01:53:15.297Z,7.80
2018-11-26T01:55:44.332Z,7.80
2018-11-26T01:58:13.393Z,7.80
2018-11-26T02:00:42.468Z,7.90
2018-11-26T02:03:11.561Z,7.90
2018-11-26T02:05:40.609Z,7.90
2018-11-26T02:08:10.115Z,7.90
2018-11-26T02:10:39.916Z,7.90
2018-11-26T02:13:09.056Z,7.90
2018-11-26T02:15:40.615Z,7.90
2018-11-26T02:18:10.390Z,7.90
2018-11-26T02:20:39.553Z,7.90
2018-11-26T02:23:09.951Z,7.80
2018-11-26T02:25:39.401Z,7.90
2018-11-26T02:28:08.441Z,7.90
2018-11-26T02:30:37.464Z,7.90
2018-11-26T02:33:06.488Z,7.90
2018-11-26T02:35:35.638Z,7.90
2018-11-26T02:38:07.880Z,7.80
2018-11-26T02:40:36.903Z,7.80
2018-11-26T02:43:05.983Z,7.80
2018-11-26T02:45:35.650Z,7.80
2018-11-26T02:48:05.107Z,7.80
2018-11-26T02:50:34.104Z,7.80
2018-11-26T02:53:03.873Z,7.80
2018-11-26T02:55:32.921Z,7.70
2018-11-26T02:58:01.954Z,7.70
2018-11-26T03:00:31.376Z,7.80
2018-11-26T03:03:00.463Z,7.80
2018-11-26T03:05:30.400Z,7.70
2018-11-26T03:07:59.442Z,7.70
2018-11-26T03:10:28.490Z,7.70
2018-11-26T03:12:57.548Z,7.70
2018-11-26T03:15:26.591Z,7.70
2018-11-26T03:17:55.620Z,7.70
2018-11-26T03:20:24.675Z,7.70
2018-11-26T03:22:53.861Z,7.70
2018-11-26T03:25:23.788Z,7.70
2018-11-26T03:27:54.211Z,7.70
2018-11-26T03:30:23.450Z,7.70
2018-11-26T03:32:52.536Z,7.80
2018-11-26T03:35:21.560Z,7.70
2018-11-26T03:37:51.559Z,7.70
2018-11-26T03:40:20.543Z,7.70
2018-11-26T03:42:49.578Z,7.70
2018-11-26T03:45:18.873Z,7.70
2018-11-26T03:47:48.448Z,7.70
2018-11-26T03:50:17.536Z,7.70
2018-11-26T03:52:46.947Z,7.70
2018-11-26T03:55:16.656Z,7.70
2018-11-26T03:57:45.730Z,7.70
2018-11-26T04:00:16.384Z,7.80
2018-11-26T04:02:46.031Z,7.80
2018-11-26T04:05:15.093Z,7.80
2018-11-26T04:07:44.228Z,7.80
2018-11-26T04:10:14.048Z,7.80
2018-11-26T04:12:43.113Z,7.80
2018-11-26T04:15:14.731Z,7.80
2018-11-26T04:17:43.791Z,7.80
2018-11-26T04:20:12.980Z,7.80
2018-11-26T04:22:41.996Z,7.80
2018-11-26T04:25:11.010Z,7.80
2018-11-26T04:27:40.416Z,7.80
2018-11-26T04:30:11.439Z,7.80
2018-11-26T04:32:40.827Z,7.80
2018-11-26T04:35:12.377Z,7.80
2018-11-26T04:37:41.390Z,7.80
2018-11-26T04:40:10.747Z,7.80
2018-11-26T04:42:40.110Z,7.80
2018-11-26T04:45:10.686Z,7.80
2018-11-26T04:47:39.824Z,7.80
2018-11-26T04:50:10.428Z,7.80
2018-11-26T04:52:39.547Z,7.80
2018-11-26T04:55:10.195Z,7.80
2018-11-26T04:57:42.537Z,7.80
2018-11-26T05:00:13.615Z,7.80
2018-11-26T05:02:42.803Z,7.70
2018-11-26T05:05:13.090Z,7.70
2018-11-26T05:07:42.148Z,7.80
2018-11-26T05:10:14.165Z,7.70
2018-11-26T05:12:43.239Z,7.80
2018-11-26T05:15:13.911Z,7.70
2018-11-26T05:17:42.931Z,7.80
2018-11-26T05:20:13.741Z,7.80
2018-11-26T05:22:42.985Z,7.70
2018-11-26T05:25:12.859Z,7.80
2018-11-26T05:27:41.862Z,7.80
2018-11-26T05:30:12.802Z,7.80
2018-11-26T05:32:42.144Z,7.80
2018-11-26T05:35:12.169Z,7.80
2018-11-26T05:37:41.310Z,7.80
2018-11-26T05:40:13.935Z,7.80
2018-11-26T05:42:43.541Z,7.80
2018-11-26T05:45:13.889Z,7.90
2018-11-26T05:47:43.021Z,7.90
2018-11-26T05:50:13.086Z,7.90
2018-11-26T05:52:42.374Z,7.90
2018-11-26T05:55:14.606Z,7.90
2018-11-26T05:57:44.269Z,7.90
2018-11-26T06:00:17.731Z,7.90
2018-11-26T06:02:46.757Z,7.90
2018-11-26T06:05:15.814Z,7.90
2018-11-26T06:07:44.888Z,7.90
2018-11-26T06:10:14.002Z,7.90
2018-11-26T06:12:44.422Z,7.90
2018-11-26T06:15:13.834Z,7.80
2018-11-26T06:17:42.888Z,7.90
2018-11-26T06:20:13.797Z,7.80
2018-11-26T06:22:44.155Z,7.80
2018-11-26T06:25:15.428Z,7.80
2018-11-26T06:27:44.651Z,7.80
2018-11-26T06:30:14.976Z,7.70
2018-11-26T06:32:44.245Z,7.70
2018-11-26T06:35:17.528Z,7.70
2018-11-26T06:37:46.677Z,7.80
2018-11-26T06:40:16.142Z,7.80
2018-11-26T06:42:45.744Z,7.70
2018-11-26T06:45:17.982Z,7.70
2018-11-26T06:47:47.166Z,7.70
2018-11-26T06:50:17.290Z,7.70
2018-11-26T06:52:46.620Z,7.70
2018-11-26T06:55:18.676Z,7.70
2018-11-26T06:57:47.797Z,7.70
2018-11-26T07:00:18.655Z,7.70
2018-11-26T07:02:47.776Z,7.70
2018-11-26T07:05:19.208Z,7.70
2018-11-26T07:07:48.644Z,7.70
2018-11-26T07:10:18.831Z,7.70
2018-11-26T07:12:47.944Z,7.70
2018-11-26T07:15:18.647Z,7.70
2018-11-26T07:17:48.633Z,7.70
2018-11-26T07:20:19.676Z,7.70
2018-11-26T07:22:48.841Z,7.70
2018-11-26T07:25:19.365Z,7.70
2018-11-26T07:27:50.880Z,7.80
2018-11-26T07:30:22.495Z,7.80
2018-11-26T07:32:51.732Z,7.80
2018-11-26T07:35:20.790Z,7.80
2018-11-26T07:37:49.938Z,7.90
2018-11-26T07:40:20.781Z,7.90
2018-11-26T07:43:01.197Z,7.80
2018-11-26T07:45:30.267Z,7.90
2018-11-26T07:47:59.274Z,7.90
2018-11-26T07:50:28.294Z,7.90
2018-11-26T07:52:57.319Z,7.90
2018-11-26T07:55:26.947Z,7.90
2018-11-26T07:57:56.007Z,7.90
2018-11-26T08:00:25.050Z,7.90
2018-11-26T08:02:55.329Z,7.90
2018-11-26T08:05:24.690Z,7.90
2018-11-26T08:07:53.770Z,7.90
2018-11-26T08:10:23.810Z,7.90
2018-11-26T08:12:53.879Z,7.90
2018-11-26T08:15:26.492Z,7.90
2018-11-26T08:17:55.717Z,7.90
2018-11-26T08:20:24.765Z,7.90
2018-11-26T08:22:53.807Z,8.00
2018-11-26T08:25:23.914Z,8.00
2018-11-26T08:27:53.174Z,8.00
2018-11-26T08:30:25.810Z,8.10
2018-11-26T08:32:56.012Z,8.10
2018-11-26T08:35:25.145Z,8.10
2018-11-26T08:37:59.524Z,8.10
2018-11-26T08:40:29.873Z,8.20
2018-11-26T08:43:11.797Z,8.10
2018-11-26T08:45:47.454Z,8.20
2018-11-26T08:48:30.822Z,8.20
2018-11-26T08:51:01.315Z,8.30
2018-11-26T08:53:30.718Z,8.40
2018-11-26T08:55:59.914Z,8.40
2018-11-26T08:58:28.948Z,8.50
2018-11-26T09:01:05.956Z,8.50
2018-11-26T09:03:36.476Z,8.60
2018-11-26T09:06:06.008Z,8.60
2018-11-26T09:08:36.553Z,8.60
2018-11-26T09:11:07.829Z,8.60
2018-11-26T09:13:37.066Z,8.70
2018-11-26T09:16:06.546Z,8.60
2018-11-26T09:18:36.456Z,8.60
2018-11-26T09:21:05.632Z,8.70
2018-11-26T09:23:34.750Z,8.70
2018-11-26T09:26:03.914Z,8.70
2018-11-26T09:28:32.914Z,8.70
2018-11-26T09:31:02.303Z,8.70
2018-11-26T09:33:31.562Z,8.70
2018-11-26T09:36:03.202Z,8.80
2018-11-26T09:38:32.904Z,8.80
2018-11-26T09:41:02.014Z,8.80
2018-11-26T09:43:31.034Z,8.80
2018-11-26T09:46:00.081Z,8.90
2018-11-26T09:48:29.348Z,8.90
2018-11-26T09:50:58.834Z,9.00
2018-11-26T09:53:27.874Z,9.10
2018-11-26T09:55:56.952Z,9.30
2018-11-26T09:58:26.026Z,9.40
2018-11-26T10:00:55.903Z,9.40
2018-11-26T10:03:24.938Z,9.50
2018-11-26T10:05:54.831Z,9.50
2018-11-26T10:08:23.870Z,9.50
2018-11-26T10:10:52.954Z,9.50
2018-11-26T10:13:21.964Z,9.50
2018-11-26T10:15:50.989Z,9.40
2018-11-26T10:18:20.074Z,9.40
2018-11-26T10:20:49.158Z,9.50
2018-11-26T10:23:18.177Z,9.70
2018-11-26T10:25:47.191Z,9.70
2018-11-26T10:28:16.235Z,9.70
2018-11-26T10:30:45.264Z,9.80
2018-11-26T10:33:14.785Z,9.90
2018-11-26T10:35:43.486Z,10.00
2018-11-26T10:38:13.548Z,10.00
2018-11-26T10:40:42.619Z,10.10
2018-11-26T10:43:12.752Z,10.20
2018-11-26T10:45:41.836Z,10.30
2018-11-26T10:48:10.919Z,10.10
2018-11-26T10:50:40.179Z,9.90
2018-11-26T10:53:09.630Z,9.90
2018-11-26T10:55:38.998Z,9.90
2018-11-26T10:58:08.066Z,10.00
2018-11-26T11:00:38.923Z,10.10
2018-11-26T11:03:08.768Z,10.00
2018-11-26T11:05:38.003Z,10.00
2018-11-26T11:08:07.986Z,10.00
2018-11-26T11:10:37.339Z,10.00
2018-11-26T11:13:07.130Z,10.00
2018-11-26T11:15:37.155Z,9.90
2018-11-26T11:18:07.692Z,9.90
2018-11-26T11:20:36.891Z,9.90
2018-11-26T11:23:07.061Z,9.90
2018-11-26T11:25:36.473Z,9.90
2018-11-26T11:28:06.134Z,9.80
2018-11-26T11:30:36.721Z,9.80
2018-11-26T11:35:36.159Z,9.70
2018-11-26T11:38:05.649Z,9.60
2018-11-26T11:40:34.844Z,9.60
2018-11-26T11:43:05.528Z,9.60
2018-11-26T11:45:34.707Z,9.60
2018-11-26T11:48:05.068Z,9.60
2018-11-26T11:50:34.151Z,9.50
2018-11-26T11:53:03.555Z,9.40
2018-11-26T11:55:32.644Z,9.40
2018-11-26T11:58:03.249Z,9.30
2018-11-26T12:00:36.060Z,9.30
2018-11-26T12:03:08.876Z,9.20
2018-11-26T12:05:37.913Z,9.20
2018-11-26T12:08:07.934Z,9.20
2018-11-26T12:10:37.014Z,9.20
2018-11-26T12:13:07.887Z,9.10
2018-11-26T12:15:38.509Z,9.10
2018-11-26T12:18:07.951Z,9.10
2018-11-26T12:20:37.153Z,9.10
2018-11-26T12:23:06.669Z,9.10
2018-11-26T12:25:35.743Z,9.00
2018-11-26T12:28:04.955Z,9.00
2018-11-26T12:30:35.769Z,9.00
2018-11-26T12:33:05.277Z,9.00
2018-11-26T12:35:35.095Z,9.10
2018-11-26T12:38:04.661Z,9.10
2018-11-26T12:40:33.834Z,9.00
2018-11-26T12:43:03.796Z,9.00
2018-11-26T12:45:34.180Z,9.00
2018-11-26T12:48:03.476Z,9.00
2018-11-26T12:50:32.591Z,9.00
2018-11-26T12:53:01.709Z,9.00
2018-11-26T12:55:30.790Z,9.00
2018-11-26T12:57:59.944Z,9.00
2018-11-26T13:00:30.039Z,9.00
2018-11-26T13:03:00.549Z,8.90
2018-11-26T13:05:29.963Z,8.90
2018-11-26T13:07:59.082Z,8.90
2018-11-26T13:10:28.504Z,8.80
2018-11-26T13:12:57.550Z,8.80
2018-11-26T13:15:27.645Z,8.80
2018-11-26T13:17:56.719Z,8.80
2018-11-26T13:20:28.752Z,8.90
2018-11-26T13:22:57.883Z,8.90
2018-11-26T13:25:28.887Z,8.90
2018-11-26T13:27:59.370Z,8.90
2018-11-26T13:30:40.879Z,8.90
2018-11-26T13:33:11.886Z,8.90
2018-11-26T13:35:41.303Z,8.80
2018-11-26T13:38:10.626Z,8.90
2018-11-26T13:40:39.803Z,8.90
2018-11-26T13:43:12.313Z,8.90
2018-11-26T13:45:46.190Z,8.90
2018-11-26T13:48:16.746Z,8.90
2018-11-26T13:50:55.465Z,8.90
2018-11-26T13:53:25.142Z,8.90
2018-11-26T13:55:54.339Z,8.90
2018-11-26T13:58:24.015Z,8.80
2018-11-26T14:00:53.069Z,8.80
2018-11-26T14:03:23.331Z,8.70
2018-11-26T14:05:53.201Z,8.70
2018-11-26T14:08:22.275Z,8.70
2018-11-26T14:10:51.458Z,8.60
2018-11-26T14:13:21.857Z,8.70
2018-11-26T14:15:51.116Z,8.70
2018-11-26T14:18:20.132Z,8.70
2018-11-26T14:20:49.210Z,8.70
2018-11-26T14:23:18.723Z,8.70
2018-11-26T14:25:48.113Z,8.70
2018-11-26T14:28:17.139Z,8.60
2018-11-26T14:30:47.903Z,8.50
2018-11-26T14:33:16.935Z,8.60
2018-11-26T14:35:45.996Z,8.60
2018-11-26T14:38:15.234Z,8.50
2018-11-26T14:40:49.686Z,8.50
2018-11-26T14:43:18.713Z,8.50
2018-11-26T14:45:47.780Z,8.50
2018-11-26T14:48:18.110Z,8.40
2018-11-26T14:50:47.176Z,8.40
2018-11-26T14:53:16.974Z,8.40
2018-11-26T14:55:46.047Z,8.40
2018-11-26T14:58:15.141Z,8.40
2018-11-26T15:00:44.307Z,8.40
2018-11-26T15:03:13.330Z,8.40
2018-11-26T15:05:42.403Z,8.40
2018-11-26T15:08:11.956Z,8.30
2018-11-26T15:10:41.259Z,8.30
2018-11-26T15:13:10.259Z,8.40
2018-11-26T15:15:39.426Z,8.30
2018-11-26T15:18:08.443Z,8.30
2018-11-26T15:20:37.462Z,8.30
2018-11-26T15:23:06.824Z,8.30
2018-11-26T15:25:36.419Z,8.30
2018-11-26T15:28:10.194Z,8.30
2018-11-26T15:30:39.212Z,8.30
2018-11-26T15:33:08.557Z,8.30
2018-11-26T15:35:37.669Z,8.30
2018-11-26T15:38:06.857Z,8.30
2018-11-26T15:40:36.105Z,8.30
2018-11-26T15:43:06.011Z,8.30
2018-11-26T15:45:35.343Z,8.30
2018-11-26T15:48:07.524Z,8.30
2018-11-26T15:50:36.589Z,8.30
2018-11-26T15:53:06.793Z,8.30
2018-11-26T15:55:35.915Z,8.30
2018-11-26T15:58:06.003Z,8.30
2018-11-26T16:00:35.173Z,8.20
2018-11-26T16:03:04.291Z,8.20
2018-11-26T16:05:33.490Z,8.20
2018-11-26T16:08:06.827Z,8.20
2018-11-26T16:10:35.884Z,8.20
2018-11-26T16:13:06.590Z,8.20
2018-11-26T16:15:38.631Z,8.20
2018-11-26T16:18:10.352Z,8.20
2018-11-26T16:20:39.457Z,8.20
2018-11-26T16:23:09.781Z,8.20
2018-11-26T16:25:42.265Z,8.20
2018-11-26T16:28:16.301Z,8.10
2018-11-26T16:30:45.631Z,8.20
2018-11-26T16:33:15.800Z,8.10
2018-11-26T16:35:44.917Z,8.10
2018-11-26T16:38:14.627Z,8.20
2018-11-26T16:40:43.809Z,8.20
2018-11-26T16:43:12.970Z,8.20
2018-11-26T16:45:41.957Z,8.20
2018-11-26T16:48:11.217Z,8.10
2018-11-26T16:50:40.454Z,8.10
2018-11-26T16:53:09.586Z,8.10
2018-11-26T16:55:38.758Z,8.00
2018-11-26T16:58:07.848Z,8.00
2018-11-26T17:00:37.104Z,8.00
2018-11-26T17:03:09.120Z,8.00
2018-11-26T17:05:40.578Z,8.00
2018-11-26T17:08:11.991Z,8.00
2018-11-26T17:10:41.337Z,8.00
2018-11-26T17:13:11.531Z,7.90
2018-11-26T17:15:40.953Z,8.00
2018-11-26T17:18:10.002Z,8.00
2018-11-26T17:20:39.153Z,7.90
2018-11-26T17:23:08.468Z,7.90
2018-11-26T17:25:37.534Z,7.90
2018-11-26T17:28:08.061Z,8.00
2018-11-26T17:30:38.538Z,7.90
2018-11-26T17:33:09.467Z,8.00
2018-11-26T17:35:38.512Z,7.90
2018-11-26T17:38:07.733Z,7.90
2018-11-26T17:40:37.421Z,7.90
2018-11-26T17:43:07.826Z,7.80
2018-11-26T17:45:36.903Z,7.80
2018-11-26T17:48:06.727Z,7.80
2018-11-26T17:50:37.310Z,7.80
2018-11-26T17:53:09.198Z,7.80
2018-11-26T17:55:44.661Z,7.80
2018-11-26T17:58:13.710Z,7.90
2018-11-26T18:00:43.189Z,7.80
2018-11-26T18:03:18.593Z,7.90
2018-11-26T18:05:47.648Z,7.90
2018-11-26T18:08:18.391Z,7.90
2018-11-26T18:10:47.793Z,7.80
2018-11-26T18:13:16.843Z,7.80
2018-11-26T18:15:45.864Z,7.80
2018-11-26T18:18:18.570Z,7.80
2018-11-26T18:20:48.069Z,7.80
2018-11-26T18:23:17.509Z,7.80
2018-11-26T18:25:46.608Z,7.80
2018-11-26T18:28:16.572Z,7.80
2018-11-26T18:30:51.011Z,7.80
2018-11-26T18:33:20.096Z,7.80
2018-11-26T18:35:49.336Z,7.70
2018-11-26T18:38:18.759Z,7.70
2018-11-26T18:40:49.769Z,7.80
2018-11-26T18:43:18.833Z,7.70
2018-11-26T18:45:47.929Z,7.70
2018-11-26T18:48:16.994Z,7.70
2018-11-26T18:50:46.091Z,7.70
2018-11-26T18:53:15.273Z,7.70
2018-11-26T18:55:44.338Z,7.70
2018-11-26T18:58:13.425Z,7.70
2018-11-26T19:00:47.074Z,7.70
2018-11-26T19:03:18.617Z,7.70
2018-11-26T19:05:48.876Z,7.70
2018-11-26T19:08:18.053Z,7.70
2018-11-26T19:10:48.036Z,7.70
2018-11-26T19:13:19.161Z,7.70
2018-11-26T19:15:49.444Z,7.70
2018-11-26T19:18:23.985Z,7.60
2018-11-26T19:20:53.351Z,7.60
2018-11-26T19:23:22.903Z,7.60
2018-11-26T19:25:53.145Z,7.60
2018-11-26T19:28:22.203Z,7.60
2018-11-26T19:30:51.595Z,7.60
2018-11-26T19:33:22.497Z,7.60
2018-11-26T19:35:51.737Z,7.60
2018-11-26T19:38:20.757Z,7.60
2018-11-26T19:40:49.908Z,7.60
2018-11-26T19:43:18.972Z,7.60
2018-11-26T19:45:49.272Z,7.50
2018-11-26T19:48:18.384Z,7.50
2018-11-26T19:50:47.430Z,7.50
2018-11-26T19:53:16.518Z,7.50
2018-11-26T19:55:45.579Z,7.50
2018-11-26T19:58:14.630Z,7.50
2018-11-26T20:00:43.645Z,7.50
2018-11-26T20:03:20.269Z,7.50
2018-11-26T20:06:02.005Z,7.60
2018-11-26T20:08:31.289Z,7.60
2018-11-26T20:11:00.350Z,7.60
2018-11-26T20:13:29.402Z,7.50
2018-11-26T20:15:58.491Z,7.50
2018-11-26T20:18:28.631Z,7.50
2018-11-26T20:20:56.957Z,7.50
2018-11-26T20:23:26.018Z,7.60
2018-11-26T20:25:55.079Z,7.50
2018-11-26T20:28:24.131Z,7.50
2018-11-26T20:30:53.209Z,7.50
2018-11-26T20:33:22.285Z,7.40
2018-11-26T20:35:51.901Z,7.40
2018-11-26T20:38:22.270Z,7.40
2018-11-26T20:40:51.792Z,7.40
2018-11-26T20:43:20.834Z,7.40
2018-11-26T20:45:50.477Z,7.40
2018-11-26T20:48:19.581Z,7.40
2018-11-26T20:50:50.824Z,7.40
2018-11-26T20:53:22.095Z,7.40
2018-11-26T20:55:51.186Z,7.30
2018-11-26T20:58:20.228Z,7.30
2018-11-26T21:00:49.368Z,7.30
2018-11-26T21:03:18.467Z,7.30
2018-11-26T21:05:47.879Z,7.30
2018-11-26T21:08:17.385Z,7.30
2018-11-26T21:10:47.458Z,7.30
2018-11-26T21:13:17.155Z,7.30
2018-11-26T21:15:46.783Z,7.30
2018-11-26T21:18:15.922Z,7.30
2018-11-26T21:20:49.126Z,7.30
2018-11-26T21:23:30.048Z,7.30
2018-11-26T21:26:01.110Z,7.30
2018-11-26T21:28:30.153Z,7.30
2018-11-26T21:31:00.471Z,7.30
2018-11-26T21:33:31.415Z,7.30
2018-11-26T21:36:00.606Z,7.30
2018-11-26T21:38:29.981Z,7.30
2018-11-26T21:41:00.761Z,7.30
2018-11-26T21:43:29.827Z,7.30
2018-11-26T21:46:00.195Z,7.20
2018-11-26T21:48:29.259Z,7.20
2018-11-26T21:51:00.841Z,7.20
2018-11-26T21:53:29.848Z,7.20
2018-11-26T21:55:58.913Z,7.10
2018-11-26T21:58:27.949Z,7.20
2018-11-26T22:00:58.113Z,7.20
2018-11-26T22:03:30.572Z,7.20
2018-11-26T22:05:56.319Z,7.20
2018-11-26T22:08:25.396Z,7.20
2018-11-26T22:10:54.518Z,7.20
2018-11-26T22:13:23.589Z,7.20
2018-11-26T22:15:52.647Z,7.20
2018-11-26T22:18:22.696Z,7.20
2018-11-26T22:20:51.956Z,7.20
2018-11-26T22:23:21.029Z,7.20
2018-11-26T22:25:50.219Z,7.20
2018-11-26T22:28:19.210Z,7.20
2018-11-26T22:30:48.402Z,7.20
2018-11-26T22:33:17.515Z,7.20
2018-11-26T22:35:46.594Z,7.20
2018-11-26T22:38:15.720Z,7.10
2018-11-26T22:40:44.791Z,7.10
2018-11-26T22:43:13.824Z,7.10
2018-11-26T22:45:42.881Z,7.10
2018-11-26T22:48:12.983Z,7.00
2018-11-26T22:50:44.545Z,7.00
2018-11-26T22:53:14.124Z,7.00
2018-11-26T22:55:44.304Z,7.00
2018-11-26T22:58:14.250Z,7.00
2018-11-26T23:00:45.998Z,7.00
2018-11-26T23:03:17.234Z,7.00
2018-11-26T23:05:46.294Z,6.90
2018-11-26T23:08:15.311Z,6.90
2018-11-26T23:10:44.388Z,6.90
2018-11-26T23:13:13.437Z,6.90
2018-11-26T23:15:42.476Z,7.00
2018-11-26T23:18:11.543Z,7.00
2018-11-26T23:20:40.597Z,7.00
2018-11-26T23:23:09.742Z,7.00
2018-11-26T23:25:39.114Z,7.00
2018-11-26T23:28:08.264Z,7.00
2018-11-26T23:30:37.322Z,6.90
2018-11-26T23:33:07.970Z,6.90
2018-11-26T23:35:37.045Z,6.80
2018-11-26T23:38:06.609Z,6.80
2018-11-26T23:40:36.246Z,6.80
2018-11-26T23:43:06.189Z,6.80
2018-11-26T23:45:35.600Z,6.80
2018-11-26T23:48:05.137Z,6.80
2018-11-26T23:50:34.627Z,6.70
2018-11-26T23:53:04.655Z,6.70
2018-11-26T23:55:33.739Z,6.70
2018-11-26T23:58:02.780Z,6.60
